^^
Your Local Weather - Clay, NY Station Historical Data
Daily Summary for March 26, 2017 Units:  English    Metric   Both
« Previous Day
Next Day »
Daily Weekly Monthly Yearly Custom
  High: Low: Average:
Temperature: 40.9 °F 32.3 °F 36.3 °F
Dew Point: 35.8 °F 24.1 °F 29.9 °F
Humidity: 93% 66% 78%
Wind Speed: 7.0mph 0.0mph 3.5mph
Wind Gust: 13.0mph - -
Wind- - East
Pressure: 30.37 in 30.10 in -
Precipitation: 0.03 in    
Historical Graphs
 
 
Tabular Data for March 26, 2017
Time Temperature Dew Point Pressure Wind Wind Speed Wind Gust Humidity Rainfall Rate (Hourly) solar
00:00 34.6 °F 32.5 °F 30.37 in Calm     92% 0.00 in 0 W/m2
00:06 34.6 °F 32.5 °F 30.36 in Calm     92% 0.00 in 0 W/m2
00:12 34.8 °F 33.0 °F 30.36 in Calm     93% 0.00 in 0 W/m2
00:18 34.7 °F 32.9 °F 30.36 in ENE 1.0 mph 1.0 mph 93% 0.00 in 0 W/m2
00:24 34.8 °F 33.0 °F 30.36 in ENE 1.0 mph 1.0 mph 93% 0.00 in 0 W/m2
00:30 34.7 °F 32.6 °F 30.36 in Calm     92% 0.00 in 0 W/m2
00:36 35.2 °F 33.4 °F 30.36 in NE 2.0 mph 3.0 mph 93% 0.00 in 0 W/m2
00:42 35.5 °F 33.7 °F 30.36 in SE 3.0 mph 3.0 mph 93% 0.00 in 0 W/m2
00:48 35.6 °F 33.8 °F 30.36 in ENE 2.0 mph 4.0 mph 93% 0.00 in 0 W/m2
00:54 35.6 °F 33.8 °F 30.36 in ENE 2.0 mph 2.0 mph 93% 0.00 in 0 W/m2
01:00 35.5 °F 33.7 °F 30.36 in ENE 2.0 mph 2.0 mph 93% 0.00 in 0 W/m2
01:06 35.4 °F 33.6 °F 30.35 in East 2.0 mph 3.0 mph 93% 0.00 in 0 W/m2
01:12 35.4 °F 33.6 °F 30.35 in ENE 2.0 mph 2.0 mph 93% 0.00 in 0 W/m2
01:18 35.4 °F 33.3 °F 30.35 in ENE 3.0 mph 7.0 mph 92% 0.00 in 0 W/m2
01:24 35.4 °F 33.3 °F 30.35 in East 2.0 mph 3.0 mph 92% 0.00 in 0 W/m2
01:30 35.3 °F 33.2 °F 30.35 in NE 2.0 mph 2.0 mph 92% 0.00 in 0 W/m2
01:36 35.3 °F 33.2 °F 30.35 in East 2.0 mph 5.0 mph 92% 0.00 in 0 W/m2
01:42 35.3 °F 33.2 °F 30.36 in SE 2.0 mph 2.0 mph 92% 0.00 in 0 W/m2
01:48 35.2 °F 32.8 °F 30.36 in ENE 1.0 mph 3.0 mph 91% 0.00 in 0 W/m2
01:54 35.2 °F 32.8 °F 30.35 in East 1.0 mph 1.0 mph 91% 0.00 in 0 W/m2
02:00 35.1 °F 32.7 °F 30.35 in ENE 1.0 mph 1.0 mph 91% 0.00 in 0 W/m2
02:06 35.1 °F 32.7 °F 30.35 in ENE 2.0 mph 4.0 mph 91% 0.00 in 0 W/m2
02:12 35.1 °F 32.7 °F 30.34 in ENE 2.0 mph 2.0 mph 91% 0.00 in 0 W/m2
02:18 35.0 °F 32.6 °F 30.34 in ENE 1.0 mph 2.0 mph 91% 0.00 in 0 W/m2
02:24 35.0 °F 32.6 °F 30.34 in ENE 1.0 mph 2.0 mph 91% 0.00 in 0 W/m2
02:30 35.0 °F 32.6 °F 30.34 in ENE 1.0 mph 2.0 mph 91% 0.00 in 0 W/m2
02:36 35.0 °F 32.6 °F 30.35 in NE 1.0 mph 2.0 mph 91% 0.00 in 0 W/m2
02:42 35.0 °F 32.6 °F 30.34 in East 1.0 mph 5.0 mph 91% 0.00 in 0 W/m2
02:48 35.1 °F 32.7 °F 30.34 in SE 2.0 mph 5.0 mph 91% 0.00 in 0 W/m2
02:54 35.2 °F 32.8 °F 30.33 in East 2.0 mph 3.0 mph 91% 0.00 in 0 W/m2
03:00 35.3 °F 32.9 °F 30.33 in ENE 3.0 mph 3.0 mph 91% 0.00 in 0 W/m2
03:06 35.4 °F 32.8 °F 30.33 in ENE 4.0 mph 5.0 mph 90% 0.00 in 0 W/m2
03:18 35.5 °F 32.6 °F 30.35 in SE 3.0 mph 7.0 mph 89% 0.00 in 0 W/m2
03:24 35.5 °F 32.3 °F 30.33 in ENE 3.0 mph 5.0 mph 88% 0.00 in 0 W/m2
03:30 35.5 °F 32.3 °F 30.33 in ENE 3.0 mph 3.0 mph 88% 0.00 in 0 W/m2
03:36 35.5 °F 32.3 °F 30.33 in East 2.0 mph 3.0 mph 88% 0.00 in 0 W/m2
03:42 35.4 °F 32.2 °F 30.33 in ENE 2.0 mph 4.0 mph 88% 0.00 in 0 W/m2
03:48 35.3 °F 32.1 °F 30.33 in East 3.0 mph 4.0 mph 88% 0.00 in 0 W/m2
03:54 35.3 °F 32.1 °F 30.33 in East 4.0 mph 9.0 mph 88% 0.00 in 0 W/m2
04:00 35.2 °F 32.0 °F 30.33 in NNE 2.0 mph 5.0 mph 88% 0.00 in 0 W/m2
04:06 35.2 °F 31.7 °F 30.33 in East 3.0 mph 5.0 mph 87% 0.00 in 0 W/m2
04:12 35.2 °F 31.7 °F 30.33 in East 4.0 mph 5.0 mph 87% 0.00 in 0 W/m2
04:18 35.2 °F 31.7 °F 30.33 in ENE 4.0 mph 9.0 mph 87% 0.00 in 0 W/m2
04:24 35.2 °F 31.4 °F 30.33 in ENE 4.0 mph 8.0 mph 86% 0.00 in 0 W/m2
04:30 35.2 °F 31.4 °F 30.33 in East 3.0 mph 3.0 mph 86% 0.00 in 0 W/m2
04:36 35.2 °F 31.1 °F 30.33 in East 3.0 mph 7.0 mph 85% 0.00 in 0 W/m2
04:42 35.2 °F 30.9 °F 30.33 in East 3.0 mph 3.0 mph 84% 0.00 in 0 W/m2
04:48 35.2 °F 30.9 °F 30.33 in ESE 3.0 mph 4.0 mph 84% 0.00 in 0 W/m2
04:54 35.2 °F 30.6 °F 30.33 in East 2.0 mph 5.0 mph 83% 0.00 in 0 W/m2
05:00 35.3 °F 30.7 °F 30.33 in East 2.0 mph 6.0 mph 83% 0.00 in 0 W/m2
05:06 35.3 °F 30.4 °F 30.33 in ESE 2.0 mph 6.0 mph 82% 0.00 in 0 W/m2
05:12 35.3 °F 30.4 °F 30.33 in ENE 3.0 mph 3.0 mph 82% 0.00 in 0 W/m2
05:18 35.2 °F 30.3 °F 30.33 in NE 3.0 mph 3.0 mph 82% 0.00 in 0 W/m2
05:24 35.1 °F 30.2 °F 30.33 in ESE 3.0 mph 3.0 mph 82% 0.00 in 0 W/m2
05:30 35.0 °F 30.1 °F 30.33 in ESE 2.0 mph 2.0 mph 82% 0.00 in 0 W/m2
05:36 34.8 °F 29.9 °F 30.33 in East 2.0 mph 5.0 mph 82% 0.00 in 0 W/m2
05:42 34.6 °F 29.7 °F 30.33 in ENE 3.0 mph 3.0 mph 82% 0.00 in 0 W/m2
05:48 34.6 °F 29.1 °F 30.33 in ESE 3.0 mph 5.0 mph 80% 0.00 in 0 W/m2
05:52 34.5 °F 29.0 °F 30.33 in SE 3.0 mph 3.0 mph 80% 0.00 in 0 W/m2
05:58 34.5 °F 28.0 °F 30.33 in SE 2.0 mph 3.0 mph 77% 0.00 in 0 W/m2
06:04 34.5 °F 27.4 °F 30.34 in ENE 2.0 mph 4.0 mph 75% 0.00 in 0 W/m2
06:10 34.5 °F 26.4 °F 30.33 in ENE 3.0 mph 4.0 mph 72% 0.00 in 0 W/m2
06:16 34.5 °F 26.4 °F 30.33 in ENE 3.0 mph 4.0 mph 72% 0.00 in 0 W/m2
06:22 34.3 °F 26.5 °F 30.33 in NE 3.0 mph 5.0 mph 73% 0.00 in 0 W/m2
06:28 34.0 °F 26.3 °F 30.33 in East 3.0 mph 5.0 mph 73% 0.00 in 0 W/m2
06:34 33.7 °F 26.0 °F 30.33 in ENE 4.0 mph 5.0 mph 73% 0.00 in 0 W/m2
06:40 33.6 °F 25.9 °F 30.33 in East 3.0 mph 3.0 mph 73% 0.00 in 0 W/m2
06:46 33.5 °F 24.8 °F 30.33 in East 4.0 mph 10.0 mph 70% 0.00 in 0 W/m2
06:52 33.4 °F 24.7 °F 30.33 in ENE 4.0 mph 4.0 mph 70% 0.00 in 0 W/m2
06:58 33.3 °F 24.2 °F 30.33 in East 4.0 mph 9.0 mph 69% 0.00 in 0 W/m2
07:04 33.2 °F 24.5 °F 30.33 in ENE 5.0 mph 5.0 mph 70% 0.00 in 0 W/m2
07:10 33.0 °F 24.3 °F 30.33 in NE 4.0 mph 6.0 mph 70% 0.00 in 0 W/m2
07:16 32.9 °F 24.2 °F 30.33 in ESE 5.0 mph 6.0 mph 70% 0.00 in 0 W/m2
07:22 32.8 °F 24.1 °F 30.33 in East 4.0 mph 4.0 mph 70% 0.00 in 5 W/m2
07:28 32.8 °F 24.4 °F 30.33 in ENE 4.0 mph 9.0 mph 71% 0.00 in 9 W/m2
07:34 32.8 °F 24.1 °F 30.33 in ENE 5.0 mph 5.0 mph 70% 0.00 in 11 W/m2
07:40 32.9 °F 24.5 °F 30.33 in NE 6.0 mph 6.0 mph 71% 0.00 in 16 W/m2
07:46 32.9 °F 24.5 °F 30.34 in East 5.0 mph 6.0 mph 71% 0.00 in 16 W/m2
07:52 32.7 °F 25.0 °F 30.34 in ENE 4.0 mph 5.0 mph 73% 0.00 in 18 W/m2
07:58 32.5 °F 25.1 °F 30.34 in ENE 4.0 mph 5.0 mph 74% 0.00 in 18 W/m2
08:04 32.5 °F 25.5 °F 30.34 in ESE 4.0 mph 7.0 mph 75% 0.00 in 19 W/m2
08:10 32.4 °F 25.7 °F 30.34 in East 3.0 mph 3.0 mph 76% 0.00 in 23 W/m2
08:16 32.3 °F 25.3 °F 30.33 in ENE 4.0 mph 8.0 mph 75% 0.00 in 23 W/m2
08:22 32.3 °F 25.6 °F 30.33 in ENE 5.0 mph 10.0 mph 76% 0.00 in 30 W/m2
08:28 32.3 °F 25.3 °F 30.33 in NE 6.0 mph 10.0 mph 75% 0.00 in 39 W/m2
08:34 32.4 °F 25.4 °F 30.33 in ENE 6.0 mph 11.0 mph 75% 0.00 in 49 W/m2
08:40 32.3 °F 25.3 °F 30.33 in East 5.0 mph 7.0 mph 75% 0.00 in 49 W/m2
08:46 32.3 °F 25.3 °F 30.32 in NE 5.0 mph 10.0 mph 75% 0.00 in 58 W/m2
08:52 32.3 °F 24.9 °F 30.32 in ENE 6.0 mph 10.0 mph 74% 0.00 in 67 W/m2
08:58 32.3 °F 24.9 °F 30.32 in East 5.0 mph 10.0 mph 74% 0.00 in 77 W/m2
09:04 32.4 °F 25.0 °F 30.32 in East 5.0 mph 13.0 mph 74% 0.00 in 97 W/m2
09:10 32.4 °F 25.4 °F 30.32 in NE 6.0 mph 8.0 mph 75% 0.00 in 97 W/m2
09:16 32.4 °F 25.4 °F 30.32 in ENE 6.0 mph 8.0 mph 75% 0.00 in 97 W/m2
09:22 32.5 °F 25.5 °F 30.32 in ESE 5.0 mph 7.0 mph 75% 0.00 in 86 W/m2
09:28 32.5 °F 25.5 °F 30.31 in ENE 5.0 mph 8.0 mph 75% 0.00 in 107 W/m2
09:34 32.6 °F 25.6 °F 30.31 in ENE 5.0 mph 6.0 mph 75% 0.00 in 125 W/m2
09:40 32.7 °F 25.3 °F 30.30 in ENE 6.0 mph 6.0 mph 74% 0.00 in 172 W/m2
09:46 32.8 °F 25.7 °F 30.30 in SE 6.0 mph 9.0 mph 75% 0.00 in 199 W/m2
09:52 33.1 °F 26.0 °F 30.30 in ESE 5.0 mph 8.0 mph 75% 0.00 in 244 W/m2
09:58 33.4 °F 26.0 °F 30.30 in ENE 5.0 mph 8.0 mph 74% 0.00 in 227 W/m2
10:04 33.5 °F 26.1 °F 30.30 in East 5.0 mph 5.0 mph 74% 0.00 in 221 W/m2
10:10 33.7 °F 26.3 °F 30.30 in ENE 4.0 mph 7.0 mph 74% 0.00 in 214 W/m2
10:16 33.9 °F 26.2 °F 30.30 in NE 4.0 mph 7.0 mph 73% 0.00 in 234 W/m2
10:22 33.8 °F 26.1 °F 30.30 in SE 6.0 mph 8.0 mph 73% 0.00 in 248 W/m2
10:28 33.9 °F 26.2 °F 30.30 in East 6.0 mph 8.0 mph 73% 0.00 in 315 W/m2
10:34 34.2 °F 26.4 °F 30.30 in ESE 6.0 mph 8.0 mph 73% 0.00 in 274 W/m2
10:40 34.6 °F 26.5 °F 30.30 in East 5.0 mph 9.0 mph 72% 0.00 in 267 W/m2
10:46 34.7 °F 26.6 °F 30.30 in ENE 5.0 mph 9.0 mph 72% 0.00 in 330 W/m2
10:52 34.8 °F 26.7 °F 30.30 in East 5.0 mph 8.0 mph 72% 0.00 in 297 W/m2
10:58 34.8 °F 26.4 °F 30.30 in ENE 5.0 mph 8.0 mph 71% 0.00 in 332 W/m2
11:04 34.7 °F 26.3 °F 30.30 in NE 6.0 mph 9.0 mph 71% 0.00 in 404 W/m2
11:10 35.0 °F 26.5 °F 30.30 in ENE 5.0 mph 8.0 mph 71% 0.00 in 251 W/m2
11:16 34.7 °F 26.3 °F 30.30 in East 5.0 mph 8.0 mph 71% 0.00 in 232 W/m2
11:22 34.6 °F 26.2 °F 30.30 in East 5.0 mph 12.0 mph 71% 0.00 in 209 W/m2
11:28 34.4 °F 26.0 °F 30.30 in East 7.0 mph 12.0 mph 71% 0.00 in 211 W/m2
11:34 34.6 °F 26.2 °F 30.29 in NE 6.0 mph 9.0 mph 71% 0.00 in 229 W/m2
11:40 34.6 °F 26.2 °F 30.29 in NE 6.0 mph 8.0 mph 71% 0.00 in 221 W/m2
11:46 34.6 °F 26.2 °F 30.29 in East 6.0 mph 8.0 mph 71% 0.00 in 232 W/m2
11:52 34.9 °F 26.1 °F 30.29 in ENE 6.0 mph 11.0 mph 70% 0.00 in 193 W/m2
11:58 35.2 °F 26.4 °F 30.28 in NNE 5.0 mph 11.0 mph 70% 0.00 in 218 W/m2
12:04 35.2 °F 26.4 °F 30.28 in NE 4.0 mph 6.0 mph 70% 0.00 in 260 W/m2
12:10 35.4 °F 26.6 °F 30.27 in East 6.0 mph 8.0 mph 70% 0.00 in 287 W/m2
12:16 35.4 °F 26.2 °F 30.27 in ENE 6.0 mph 11.0 mph 69% 0.00 in 257 W/m2
12:22 35.5 °F 26.3 °F 30.27 in East 6.0 mph 7.0 mph 69% 0.00 in 248 W/m2
12:28 35.8 °F 26.6 °F 30.27 in NE 6.0 mph 13.0 mph 69% 0.00 in 476 W/m2
12:34 36.2 °F 27.0 °F 30.27 in East 6.0 mph 10.0 mph 69% 0.00 in 353 W/m2
12:40 36.3 °F 26.7 °F 30.27 in East 6.0 mph 9.0 mph 68% 0.00 in 339 W/m2
12:46 36.4 °F 27.2 °F 30.27 in East 7.0 mph 9.0 mph 69% 0.00 in 366 W/m2
12:52 36.7 °F 27.1 °F 30.27 in ENE 6.0 mph 9.0 mph 68% 0.00 in 357 W/m2
12:58 37.0 °F 27.4 °F 30.27 in East 6.0 mph 9.0 mph 68% 0.00 in 366 W/m2
13:04 37.1 °F 27.5 °F 30.26 in East 6.0 mph 6.0 mph 68% 0.00 in 311 W/m2
13:10 37.4 °F 27.8 °F 30.26 in SE 6.0 mph 6.0 mph 68% 0.00 in 311 W/m2
13:16 37.6 °F 27.6 °F 30.26 in East 5.0 mph 10.0 mph 67% 0.00 in 355 W/m2
13:22 37.9 °F 28.3 °F 30.25 in NNE 5.0 mph 8.0 mph 68% 0.00 in 250 W/m2
13:34 37.9 °F 27.9 °F 30.25 in ESE 5.0 mph 7.0 mph 67% 0.00 in 267 W/m2
13:40 38.0 °F 28.4 °F 30.25 in East 5.0 mph 7.0 mph 68% 0.00 in 190 W/m2
13:46 38.1 °F 28.5 °F 30.25 in ENE 4.0 mph 7.0 mph 68% 0.00 in 214 W/m2
13:52 38.4 °F 28.8 °F 30.24 in East 4.0 mph 5.0 mph 68% 0.00 in 223 W/m2
13:58 38.6 °F 28.9 °F 30.24 in SE 4.0 mph 5.0 mph 68% 0.00 in 149 W/m2
14:04 38.9 °F 29.6 °F 30.24 in ESE 5.0 mph 5.0 mph 69% 0.00 in 116 W/m2
14:10 38.7 °F 29.0 °F 30.24 in East 6.0 mph 6.0 mph 68% 0.00 in 128 W/m2
14:16 38.7 °F 29.4 °F 30.24 in ENE 6.0 mph 6.0 mph 69% 0.00 in 202 W/m2
14:22 39.0 °F 29.3 °F 30.24 in ENE 4.0 mph 8.0 mph 68% 0.00 in 137 W/m2
14:28 38.9 °F 29.2 °F 30.24 in ENE 4.0 mph 8.0 mph 68% 0.00 in 118 W/m2
14:34 38.8 °F 29.1 °F 30.23 in East 4.0 mph 5.0 mph 68% 0.00 in 158 W/m2
14:40 38.7 °F 29.4 °F 30.22 in ESE 3.0 mph 5.0 mph 69% 0.00 in 163 W/m2
14:46 38.9 °F 29.6 °F 30.23 in ENE 3.0 mph 5.0 mph 69% 0.00 in 190 W/m2
14:52 39.6 °F 30.6 °F 30.22 in NE 3.0 mph 3.0 mph 70% 0.00 in 227 W/m2
14:58 40.3 °F 30.9 °F 30.22 in SE 4.0 mph 6.0 mph 69% 0.00 in 276 W/m2
15:04 40.6 °F 30.9 °F 30.22 in ENE 5.0 mph 5.0 mph 68% 0.00 in 355 W/m2
15:10 40.9 °F 30.8 °F 30.22 in East 4.0 mph 9.0 mph 67% 0.00 in 345 W/m2
15:16 40.5 °F 30.0 °F 30.22 in East 4.0 mph 9.0 mph 66% 0.00 in 200 W/m2
15:22 40.3 °F 30.2 °F 30.21 in East 4.0 mph 5.0 mph 67% 0.00 in 181 W/m2
15:28 40.2 °F 30.5 °F 30.21 in ESE 4.0 mph 5.0 mph 68% 0.00 in 169 W/m2
15:34 40.2 °F 30.5 °F 30.21 in East 4.0 mph 6.0 mph 68% 0.00 in 155 W/m2
15:40 40.1 °F 30.7 °F 30.20 in ESE 4.0 mph 4.0 mph 69% 0.00 in 144 W/m2
15:46 40.2 °F 31.2 °F 30.20 in East 3.0 mph 9.0 mph 70% 0.00 in 134 W/m2
15:52 40.3 °F 31.3 °F 30.20 in ESE 4.0 mph 4.0 mph 70% 0.00 in 125 W/m2
15:58 40.1 °F 30.7 °F 30.19 in ESE 5.0 mph 8.0 mph 69% 0.00 in 141 W/m2
16:04 39.8 °F 30.5 °F 30.19 in ENE 4.0 mph 9.0 mph 69% 0.00 in 151 W/m2
16:10 39.4 °F 30.1 °F 30.19 in NE 4.0 mph 6.0 mph 69% 0.00 in 178 W/m2
16:16 39.3 °F 30.0 °F 30.18 in ESE 5.0 mph 6.0 mph 69% 0.00 in 186 W/m2
16:22 39.4 °F 30.1 °F 30.18 in ENE 5.0 mph 5.0 mph 69% 0.00 in 179 W/m2
16:28 39.5 °F 30.2 °F 30.19 in ENE 4.0 mph 5.0 mph 69% 0.00 in 142 W/m2
16:34 39.7 °F 30.7 °F 30.19 in ENE 3.0 mph 6.0 mph 70% 0.00 in 135 W/m2
16:40 39.9 °F 30.9 °F 30.18 in East 3.0 mph 3.0 mph 70% 0.00 in 142 W/m2
16:46 40.0 °F 31.0 °F 30.18 in ESE 4.0 mph 10.0 mph 70% 0.00 in 144 W/m2
16:52 39.9 °F 30.9 °F 30.17 in ENE 5.0 mph 9.0 mph 70% 0.00 in 171 W/m2
16:58 39.9 °F 30.9 °F 30.17 in SE 5.0 mph 9.0 mph 70% 0.00 in 125 W/m2
17:04 39.9 °F 30.9 °F 30.17 in SSE 4.0 mph 5.0 mph 70% 0.00 in 120 W/m2
17:10 39.8 °F 31.2 °F 30.16 in NNE 4.0 mph 5.0 mph 71% 0.00 in 107 W/m2
17:16 39.8 °F 31.2 °F 30.16 in East 4.0 mph 6.0 mph 71% 0.00 in 100 W/m2
17:22 39.7 °F 31.1 °F 30.16 in ESE 4.0 mph 5.0 mph 71% 0.00 in 93 W/m2
17:28 39.6 °F 31.3 °F 30.16 in East 4.0 mph 5.0 mph 72% 0.00 in 81 W/m2
17:34 39.5 °F 31.2 °F 30.16 in SE 4.0 mph 5.0 mph 72% 0.00 in 67 W/m2
17:40 39.4 °F 31.1 °F 30.16 in East 4.0 mph 4.0 mph 72% 0.00 in 54 W/m2
17:46 39.2 °F 31.3 °F 30.16 in East 3.0 mph 5.0 mph 73% 0.00 in 54 W/m2
17:52 39.0 °F 31.1 °F 30.16 in ESE 3.0 mph 3.0 mph 73% 0.00 in 70 W/m2
17:58 38.8 °F 30.9 °F 30.16 in NE 3.0 mph 3.0 mph 73% 0.00 in 74 W/m2
18:04 38.6 °F 30.7 °F 30.16 in ESE 3.0 mph 3.0 mph 73% 0.00 in 62 W/m2
18:10 38.6 °F 30.7 °F 30.16 in East 3.0 mph 3.0 mph 73% 0.00 in 46 W/m2
18:16 38.4 °F 30.8 °F 30.16 in ENE 3.0 mph 3.0 mph 74% 0.00 in 40 W/m2
18:28 38.2 °F 30.6 °F 30.16 in East 3.0 mph 6.0 mph 74% 0.00 in 25 W/m2
18:34 38.3 °F 31.1 °F 30.16 in ESE 3.0 mph 3.0 mph 75% 0.00 in 18 W/m2
18:40 38.6 °F 31.7 °F 30.16 in East 3.0 mph 3.0 mph 76% 0.00 in 14 W/m2
18:46 38.9 °F 32.0 °F 30.16 in ESE 3.0 mph 3.0 mph 76% 0.00 in 12 W/m2
18:52 38.7 °F 31.8 °F 30.16 in ENE 3.0 mph 3.0 mph 76% 0.00 in 11 W/m2
18:58 38.5 °F 31.6 °F 30.16 in ENE 3.0 mph 8.0 mph 76% 0.00 in 9 W/m2
19:04 38.2 °F 31.3 °F 30.16 in SE 4.0 mph 4.0 mph 76% 0.00 in 7 W/m2
19:10 38.1 °F 31.5 °F 30.16 in ENE 3.0 mph 3.0 mph 77% 0.00 in 5 W/m2
19:16 37.9 °F 31.3 °F 30.15 in ENE 3.0 mph 5.0 mph 77% 0.00 in 0 W/m2
19:22 37.7 °F 31.1 °F 30.15 in ESE 3.0 mph 5.0 mph 77% 0.00 in 0 W/m2
19:28 37.6 °F 31.4 °F 30.15 in ENE 3.0 mph 7.0 mph 78% 0.00 in 0 W/m2
19:34 37.3 °F 31.1 °F 30.15 in ENE 4.0 mph 7.0 mph 78% 0.00 in 0 W/m2
19:40 36.9 °F 30.7 °F 30.14 in East 5.0 mph 5.0 mph 78% 0.00 in 0 W/m2
19:46 36.7 °F 30.8 °F 30.14 in ENE 5.0 mph 6.0 mph 79% 0.00 in 0 W/m2
19:52 36.5 °F 30.6 °F 30.14 in East 5.0 mph 7.0 mph 79% 0.00 in 0 W/m2
19:58 36.4 °F 30.8 °F 30.15 in East 4.0 mph 7.0 mph 80% 0.00 in 0 W/m2
20:04 36.4 °F 30.8 °F 30.15 in East 3.0 mph 5.0 mph 80% 0.00 in 0 W/m2
20:10 36.4 °F 31.1 °F 30.15 in ENE 3.0 mph 3.0 mph 81% 0.00 in 0 W/m2
20:16 36.4 °F 31.1 °F 30.15 in ENE 2.0 mph 3.0 mph 81% 0.00 in 0 W/m2
20:22 36.3 °F 31.0 °F 30.15 in ENE 2.0 mph 2.0 mph 81% 0.00 in 0 W/m2
20:28 36.3 °F 31.0 °F 30.15 in East 2.0 mph 4.0 mph 81% 0.00 in 0 W/m2
20:34 36.4 °F 31.4 °F 30.15 in ENE 2.0 mph 4.0 mph 82% 0.00 in 0 W/m2
20:40 36.4 °F 31.4 °F 30.15 in ENE 2.0 mph 2.0 mph 82% 0.00 in 0 W/m2
20:46 36.6 °F 31.9 °F 30.14 in East 2.0 mph 3.0 mph 83% 0.00 in 0 W/m2
20:52 36.9 °F 32.2 °F 30.14 in ENE 2.0 mph 5.0 mph 83% 0.00 in 0 W/m2
20:58 37.3 °F 32.6 °F 30.14 in ESE 2.0 mph 5.0 mph 83% 0.00 in 0 W/m2
21:04 37.5 °F 32.5 °F 30.14 in ENE 2.0 mph 3.0 mph 82% 0.00 in 0 W/m2
21:10 37.7 °F 32.7 °F 30.14 in ENE 2.0 mph 2.0 mph 82% 0.00 in 0 W/m2
21:16 37.6 °F 32.6 °F 30.14 in East 2.0 mph 2.0 mph 82% 0.00 in 0 W/m2
21:22 37.6 °F 32.6 °F 30.14 in East 2.0 mph 2.0 mph 82% 0.00 in 0 W/m2
21:28 37.6 °F 32.6 °F 30.14 in East 1.0 mph 2.0 mph 82% 0.00 in 0 W/m2
21:34 37.6 °F 32.6 °F 30.14 in East 1.0 mph 2.0 mph 82% 0.00 in 0 W/m2
21:40 37.5 °F 32.5 °F 30.14 in East 1.0 mph 1.0 mph 82% 0.00 in 0 W/m2
21:46 37.5 °F 32.8 °F 30.13 in East 1.0 mph 3.0 mph 83% 0.00 in 0 W/m2
21:52 37.4 °F 32.7 °F 30.14 in East 2.0 mph 2.0 mph 83% 0.00 in 0 W/m2
21:58 37.5 °F 32.8 °F 30.13 in ESE 1.0 mph 2.0 mph 83% 0.00 in 0 W/m2
22:04 38.0 °F 33.6 °F 30.13 in SE 1.0 mph 3.0 mph 84% 0.00 in 0 W/m2
22:10 38.7 °F 34.3 °F 30.14 in SE 2.0 mph 2.0 mph 84% 0.00 in 0 W/m2
22:16 38.6 °F 33.9 °F 30.14 in ENE 2.0 mph 4.0 mph 83% 0.00 in 0 W/m2
22:22 37.8 °F 33.1 °F 30.13 in ENE 1.0 mph 2.0 mph 83% 0.00 in 0 W/m2
22:28 37.9 °F 33.5 °F 30.13 in ENE 1.0 mph 3.0 mph 84% 0.00 in 0 W/m2
22:34 38.2 °F 33.8 °F 30.13 in SE 1.0 mph 3.0 mph 84% 0.00 in 0 W/m2
22:40 39.1 °F 35.0 °F 30.13 in East 2.0 mph 2.0 mph 85% 0.00 in 0 W/m2
22:46 39.3 °F 34.6 °F 30.13 in ESE 2.0 mph 3.0 mph 83% 0.00 in 0 W/m2
22:52 40.0 °F 35.3 °F 30.12 in ESE 3.0 mph 3.0 mph 83% 0.00 in 0 W/m2
22:58 40.2 °F 35.4 °F 30.12 in SSE 3.0 mph 4.0 mph 83% 0.00 in 0 W/m2
23:04 40.0 °F 35.6 °F 30.12 in SE 3.0 mph 3.0 mph 84% 0.00 in 0 W/m2
23:12 39.8 °F 35.7 °F 30.12 in SE 3.0 mph 3.0 mph 85% 0.00 in 0 W/m2
23:18 39.6 °F 35.8 °F 30.12 in ESE 2.0 mph 3.0 mph 86% 0.00 in 0 W/m2
23:24 39.4 °F 35.6 °F 30.11 in ESE 2.0 mph 2.0 mph 86% 0.00 in 0 W/m2
23:30 39.3 °F 35.8 °F 30.11 in East 1.0 mph 1.0 mph 87% 0.00 in 0 W/m2
23:36 39.0 °F 35.5 °F 30.11 in ESE 1.0 mph 1.0 mph 87% 0.00 in 0 W/m2
23:42 38.5 °F 35.0 °F 30.11 in East 1.0 mph 2.0 mph 87% 0.00 in 0 W/m2
23:48 38.7 °F 35.5 °F 30.11 in SE 1.0 mph 2.0 mph 88% 0.00 in 0 W/m2
23:54 38.8 °F 35.8 °F 30.10 in SE 2.0 mph 4.0 mph 89% 0.00 in 0 W/m2
Country Meadow, Clay, NY, USA
Compliments of Weather Underground - 2 mb